Baku airport (UBBB)

baku-airport

Baku International Airport

Heydar Aliyev International Airport is the main international airport in Azerbaijan located 20 km (12 mi) northeast of the capital Baku. The airport is the home of Azerbaijan Airlines, the national flag carrier. It is the busiest airport in Azerbaijan and of the Caucasus.

ICAO: UBBB, IATA: GYD

Charts: Jeppesen

Sceneries: freeware demos w. reduced resolution

 fs9     fsx     Prepar

payware: http://www.drzewiecki-design.net/

METAR:

UBBB 060000Z 32021KT CAVOK 21/14 Q1018 R88/CLRD// NOSIG

TAF UBBB 051722Z 0518/0618 33024G34KT 9999 SCT030 SCT100 TX25/0611Z TN15/0602Z TEMPO 0518/0522 34030G40KT BECMG 0522/0524 34020G30KT TEMPO 0600/0606 -TSRA SCT012 SCT040CB BKN100 BECMG 0606/0608 35016G26KT